Time;durP1;ratioP1;P1;durP2;ratioP2;P2;SDS_P1;SDS_P2;PMS_P1;PMS_P2;Temp;Humidity;BMP_temperature;BMP_pressure;BME280_temperature;BME280_humidity;BME280_pressure;Samples;Min_cycle;Max_cycle;Signal;HPM_P1;HPM_P2
2022/05/28 00:01:36;;;;;;;14.50;2.28;;;8.40;99.90;;;;;;5018531;28;20395;-58
2022/05/28 00:04:04;;;;;;;12.52;2.15;;;8.30;99.90;;;;;;5008956;28;21327;-61
2022/05/28 00:06:31;;;;;;;14.50;2.63;;;8.30;99.90;;;;;;5015437;28;20104;-60
2022/05/28 00:08:57;;;;;;;9.15;2.42;;;8.30;99.90;;;;;;5015432;28;20030;-61
2022/05/28 00:11:39;;;;;;;11.48;2.40;;;8.20;99.90;;;;;;5015337;28;20091;-59
2022/05/28 00:14:05;;;;;;;14.27;2.95;;;8.20;99.90;;;;;;5019789;28;20395;-60
2022/05/28 00:16:31;;;;;;;14.98;3.63;;;8.10;99.90;;;;;;5020800;28;20454;-59
2022/05/28 00:18:57;;;;;;;15.02;2.63;;;8.10;99.90;;;;;;5018783;28;20033;-60
2022/05/28 00:21:24;;;;;;;12.18;2.60;;;8.10;99.90;;;;;;5013703;28;20034;-60
2022/05/28 00:23:49;;;;;;;11.55;2.28;;;8.10;99.90;;;;;;5012846;28;20084;-60
2022/05/28 00:26:15;;;;;;;17.50;2.20;;;8.10;99.90;;;;;;5014725;28;20459;-59
2022/05/28 00:28:41;;;;;;;6.80;1.98;;;8.10;99.90;;;;;;5020148;28;20045;-61
2022/05/28 00:31:07;;;;;;;10.13;2.13;;;8.10;99.90;;;;;;5022213;28;20017;-61
2022/05/28 00:33:33;;;;;;;12.95;2.40;;;8.10;99.90;;;;;;5019765;28;20021;-60
2022/05/28 00:36:00;;;;;;;15.27;2.70;;;8.10;99.90;;;;;;5012288;28;20022;-61
2022/05/28 00:38:26;;;;;;;11.45;2.28;;;8.10;99.90;;;;;;5014066;28;20538;-61
2022/05/28 00:40:54;;;;;;;11.18;2.30;;;8.10;99.90;;;;;;5013676;28;20033;-61
2022/05/28 00:43:20;;;;;;;13.63;2.10;;;8.10;99.90;;;;;;5021544;28;20037;-61
2022/05/28 00:45:49;;;;;;;13.30;2.58;;;8.10;99.90;;;;;;5018687;28;20052;-61
2022/05/28 00:48:21;;;;;;;14.27;2.05;;;8.20;99.90;;;;;;5019345;28;20065;-61
2022/05/28 00:50:46;;;;;;;11.50;2.03;;;8.30;99.90;;;;;;5014666;28;20132;-61
2022/05/28 00:53:13;;;;;;;13.93;2.50;;;8.30;99.90;;;;;;5011563;28;20113;-61
2022/05/28 00:55:39;;;;;;;11.27;1.73;;;8.30;99.90;;;;;;5012468;28;20026;-61
2022/05/28 00:58:07;;;;;;;14.75;2.17;;;8.40;99.90;;;;;;5016804;28;20048;-61
2022/05/28 01:00:33;;;;;;;12.38;2.17;;;8.40;99.90;;;;;;4994019;28;20041;-62
2022/05/28 01:03:32;;;;;;;10.48;1.75;;;8.40;99.90;;;;;;5025532;28;20517;-61
2022/05/28 01:06:33;;;;;;;13.85;2.00;;;8.50;99.90;;;;;;5003524;28;20052;-61
2022/05/28 01:09:07;;;;;;;7.70;2.75;;;8.50;99.90;;;;;;5002856;28;20137;-61
2022/05/28 01:11:44;;;;;;;23.42;2.47;;;8.50;99.90;;;;;;5019844;28;20029;-62
2022/05/28 01:14:19;;;;;;;11.05;2.45;;;8.50;99.90;;;;;;5028520;28;20538;-62
2022/05/28 01:16:50;;;;;;;12.75;2.00;;;8.50;99.90;;;;;;5013068;28;20049;-62
2022/05/28 01:19:31;;;;;;;18.00;2.65;;;8.60;99.90;;;;;;5017262;28;20495;-62
2022/05/28 01:22:35;;;;;;;9.48;2.13;;;8.60;99.90;;;;;;5016355;28;20065;-60
2022/05/28 01:25:23;;;;;;;12.05;2.30;;;8.60;99.90;;;;;;5017702;28;20083;-60
2022/05/28 01:27:53;;;;;;;9.45;2.38;;;8.60;99.90;;;;;;5027726;28;20090;-60
2022/05/28 01:30:19;;;;;;;11.90;2.20;;;8.60;99.90;;;;;;5024287;28;20104;-62
2022/05/28 01:32:50;;;;;;;7.93;1.92;;;8.70;99.90;;;;;;5016382;28;20376;-59
2022/05/28 01:35:18;;;;;;;14.18;2.72;;;8.70;99.90;;;;;;5018890;28;20038;-61
2022/05/28 01:37:46;;;;;;;17.92;3.60;;;8.70;99.90;;;;;;5019087;28;20196;-60
2022/05/28 01:40:13;;;;;;;11.85;3.13;;;8.80;99.90;;;;;;5023902;28;20059;-61
2022/05/28 01:42:44;;;;;;;15.25;2.97;;;8.80;99.90;;;;;;5019260;28;20174;-57
2022/05/28 01:45:12;;;;;;;14.82;2.40;;;8.80;99.90;;;;;;5016751;28;20033;-61
2022/05/28 01:47:38;;;;;;;14.60;2.28;;;8.80;99.90;;;;;;5014578;28;20036;-61
2022/05/28 01:50:06;;;;;;;6.95;1.90;;;8.80;99.90;;;;;;5018575;28;20120;-61
2022/05/28 01:52:33;;;;;;;7.75;2.20;;;8.80;99.90;;;;;;5018039;28;20057;-62
2022/05/28 01:55:01;;;;;;;15.43;2.78;;;8.80;99.90;;;;;;5018855;28;20732;-61
2022/05/28 01:57:27;;;;;;;8.35;1.73;;;8.70;99.90;;;;;;5012261;28;20026;-61
2022/05/28 01:59:52;;;;;;;8.73;2.85;;;8.70;99.90;;;;;;4993791;28;20038;-61
2022/05/28 02:02:18;;;;;;;8.98;2.70;;;8.60;99.90;;;;;;5010988;28;20041;-61
2022/05/28 02:04:46;;;;;;;11.43;1.98;;;8.60;99.90;;;;;;5016719;28;20037;-61
2022/05/28 02:07:12;;;;;;;9.25;1.90;;;8.60;99.90;;;;;;5012711;28;20037;-60
2022/05/28 02:09:43;;;;;;;13.60;2.83;;;8.60;99.90;;;;;;5022628;28;20034;-61
2022/05/28 02:12:36;;;;;;;11.32;2.25;;;8.60;99.90;;;;;;5020104;28;20036;-61
2022/05/28 02:15:07;;;;;;;8.88;1.90;;;8.50;99.90;;;;;;5023439;28;20430;-61
2022/05/28 02:17:50;;;;;;;10.00;1.95;;;8.50;99.90;;;;;;5022562;28;20026;-61
2022/05/28 02:20:51;;;;;;;13.23;2.70;;;8.60;99.90;;;;;;5028864;28;20037;-61
2022/05/28 02:23:25;;;;;;;12.45;2.33;;;8.60;99.90;;;;;;5030781;28;20041;-61
2022/05/28 02:26:02;;;;;;;11.02;1.85;;;8.70;99.90;;;;;;5008278;28;20487;-61
2022/05/28 02:28:30;;;;;;;8.05;2.53;;;8.70;99.90;;;;;;4996911;28;20034;-60
2022/05/28 02:31:02;;;;;;;14.15;2.20;;;8.80;99.90;;;;;;5021077;28;20113;-60
2022/05/28 02:33:29;;;;;;;10.18;2.20;;;8.80;99.90;;;;;;4992077;28;20029;-60
2022/05/28 02:35:55;;;;;;;18.20;2.63;;;8.90;99.90;;;;;;4990141;28;20022;-61
2022/05/28 02:38:21;;;;;;;13.02;2.47;;;8.90;99.90;;;;;;5029558;28;20094;-61
2022/05/28 02:40:46;;;;;;;11.05;2.80;;;9.00;99.90;;;;;;5031472;28;20030;-61
2022/05/28 02:43:12;;;;;;;9.50;2.15;;;9.00;99.90;;;;;;5029450;28;20033;-60
2022/05/28 02:45:39;;;;;;;13.93;2.50;;;9.10;99.90;;;;;;5030498;28;20635;-59
2022/05/28 02:48:04;;;;;;;9.15;1.77;;;9.10;99.90;;;;;;5034002;28;20505;-61
2022/05/28 02:50:30;;;;;;;8.52;2.72;;;9.20;99.90;;;;;;5026050;28;20117;-61
2022/05/28 02:52:56;;;;;;;13.52;1.88;;;9.20;99.90;;;;;;5031394;28;20036;-61
2022/05/28 02:55:22;;;;;;;16.13;2.65;;;9.20;99.90;;;;;;5030221;28;20025;-61
2022/05/28 02:57:48;;;;;;;11.45;2.67;;;9.20;99.90;;;;;;5031771;28;20025;-61
2022/05/28 03:00:17;;;;;;;8.52;2.05;;;9.20;99.90;;;;;;5008196;28;20084;-62
2022/05/28 03:02:44;;;;;;;12.80;2.10;;;9.20;99.90;;;;;;5029172;28;20017;-61
2022/05/28 03:05:12;;;;;;;9.38;2.33;;;9.20;99.90;;;;;;5026595;28;20024;-62
2022/05/28 03:07:37;;;;;;;22.05;2.63;;;9.20;99.90;;;;;;5021289;28;20017;-62
2022/05/28 03:10:03;;;;;;;11.05;1.95;;;9.30;99.90;;;;;;5031131;28;20501;-60
2022/05/28 03:12:29;;;;;;;12.77;2.40;;;9.30;99.90;;;;;;5031774;28;20045;-62
2022/05/28 03:14:54;;;;;;;9.88;2.38;;;9.30;99.90;;;;;;5030829;28;20036;-61
2022/05/28 03:17:20;;;;;;;12.32;2.42;;;9.30;99.90;;;;;;5028096;28;20441;-60
2022/05/28 03:19:45;;;;;;;11.15;2.13;;;9.30;99.90;;;;;;5032330;28;20068;-62
2022/05/28 03:22:11;;;;;;;11.43;2.63;;;9.30;99.90;;;;;;5028233;28;20037;-61
2022/05/28 03:24:36;;;;;;;14.35;2.75;;;9.30;99.90;;;;;;5029058;28;20383;-60
2022/05/28 03:27:02;;;;;;;11.27;2.58;;;9.30;99.90;;;;;;5028714;28;20044;-62
2022/05/28 03:29:28;;;;;;;10.90;1.95;;;9.30;99.90;;;;;;5031704;28;20029;-61
2022/05/28 03:31:53;;;;;;;12.20;2.92;;;9.30;99.90;;;;;;5028643;28;20040;-62
2022/05/28 03:34:19;;;;;;;11.63;2.75;;;9.30;99.90;;;;;;5037261;28;20025;-61
2022/05/28 03:36:44;;;;;;;13.50;2.42;;;9.30;99.90;;;;;;5030075;28;20037;-62
2022/05/28 03:39:10;;;;;;;10.20;2.83;;;9.20;99.90;;;;;;5032090;28;20349;-61
2022/05/28 03:41:36;;;;;;;8.45;1.70;;;9.20;99.90;;;;;;5020194;28;20040;-62
2022/05/28 03:44:01;;;;;;;13.85;2.08;;;9.30;99.90;;;;;;5030424;28;20091;-61
2022/05/28 03:46:30;;;;;;;10.70;2.92;;;9.30;99.90;;;;;;5026965;28;20041;-57
2022/05/28 03:49:26;;;;;;;17.52;2.60;;;9.40;99.90;;;;;;5031683;28;20041;-61
2022/05/28 03:51:52;;;;;;;10.43;2.78;;;9.50;99.90;;;;;;5025862;28;20455;-61
2022/05/28 03:54:18;;;;;;;11.60;2.45;;;9.60;99.90;;;;;;5030619;28;20116;-61
2022/05/28 03:56:45;;;;;;;16.00;2.80;;;9.60;99.90;;;;;;5028480;28;20025;-62
2022/05/28 03:59:11;;;;;;;8.50;1.98;;;9.60;99.90;;;;;;5029556;28;20406;-59
2022/05/28 04:01:37;;;;;;;13.05;3.38;;;9.60;99.90;;;;;;5005717;28;20517;-61
2022/05/28 04:04:04;;;;;;;16.98;3.45;;;9.60;99.90;;;;;;5028803;28;20026;-61
2022/05/28 04:06:29;;;;;;;10.82;1.85;;;9.60;99.90;;;;;;5025569;28;20087;-60
2022/05/28 04:08:55;;;;;;;15.73;2.80;;;9.50;99.90;;;;;;5030870;28;20030;-61
2022/05/28 04:11:21;;;;;;;9.95;2.20;;;9.60;99.90;;;;;;5009537;28;20034;-61
2022/05/28 04:13:47;;;;;;;13.77;3.20;;;9.60;99.90;;;;;;5024876;28;20479;-61
2022/05/28 04:16:13;;;;;;;14.77;3.17;;;9.70;99.90;;;;;;5028172;28;20026;-60
2022/05/28 04:18:40;;;;;;;16.23;2.85;;;9.80;99.90;;;;;;5029470;28;20405;-62
2022/05/28 04:21:06;;;;;;;11.98;3.33;;;9.80;99.90;;;;;;5025764;28;20056;-62
2022/05/28 04:23:31;;;;;;;10.20;2.70;;;9.90;99.90;;;;;;5030509;28;20056;-61
2022/05/28 04:25:57;;;;;;;12.13;2.53;;;9.90;99.90;;;;;;5028080;28;20072;-62
2022/05/28 04:28:23;;;;;;;15.93;4.32;;;10.00;99.90;;;;;;5028420;28;20040;-61
2022/05/28 04:30:48;;;;;;;17.13;3.72;;;10.10;99.90;;;;;;5024101;28;20013;-62
2022/05/28 04:33:14;;;;;;;16.15;3.97;;;10.20;99.90;;;;;;5030918;28;20022;-62
2022/05/28 04:35:39;;;;;;;14.57;2.90;;;11.20;99.90;;;;;;5027989;28;20107;-61
2022/05/28 04:38:05;;;;;;;10.52;2.45;;;12.10;99.90;;;;;;5028908;28;20120;-60
2022/05/28 04:40:30;;;;;;;13.75;2.67;;;12.60;99.90;;;;;;5024225;28;20044;-60
2022/05/28 04:42:56;;;;;;;15.52;3.92;;;13.10;99.90;;;;;;5027381;28;20025;-62
2022/05/28 04:45:21;;;;;;;13.48;2.85;;;13.80;99.90;;;;;;5025335;28;20033;-62
2022/05/28 04:47:47;;;;;;;12.52;3.58;;;14.10;99.90;;;;;;5024759;28;20068;-62
2022/05/28 04:50:14;;;;;;;15.73;3.92;;;13.90;99.90;;;;;;5028181;28;20063;-61
2022/05/28 04:52:39;;;;;;;21.73;3.90;;;13.60;99.90;;;;;;5024233;28;20021;-62
2022/05/28 04:55:07;;;;;;;15.38;3.08;;;13.30;99.90;;;;;;5028730;28;20021;-61
2022/05/28 04:57:33;;;;;;;14.45;2.60;;;13.10;99.90;;;;;;5029175;28;20399;-62
2022/05/28 04:59:58;;;;;;;12.07;2.92;;;12.90;99.90;;;;;;5029354;28;20060;-62
2022/05/28 05:02:24;;;;;;;11.20;2.85;;;12.70;99.90;;;;;;5008318;28;20103;-62
2022/05/28 05:04:57;;;;;;;11.35;2.53;;;12.70;99.90;;;;;;5027319;28;20392;-62
2022/05/28 05:07:23;;;;;;;13.02;3.00;;;12.70;99.90;;;;;;5027555;28;20030;-60
2022/05/28 05:09:49;;;;;;;11.70;3.15;;;13.00;99.90;;;;;;5027912;28;20554;-62
2022/05/28 05:12:14;;;;;;;17.75;2.97;;;13.20;99.90;;;;;;5029531;28;20113;-62
2022/05/28 05:14:40;;;;;;;10.90;3.55;;;13.60;99.90;;;;;;5029323;28;20075;-62
2022/05/28 05:17:06;;;;;;;14.68;3.28;;;13.50;99.90;;;;;;5027706;28;20459;-60
2022/05/28 05:19:31;;;;;;;13.52;3.10;;;13.60;99.90;;;;;;5027740;28;20087;-60
2022/05/28 05:21:57;;;;;;;16.63;3.25;;;13.60;99.90;;;;;;5026249;28;20533;-61
2022/05/28 05:24:24;;;;;;;15.98;2.88;;;13.40;99.90;;;;;;5037061;28;20026;-62
2022/05/28 05:26:49;;;;;;;8.40;2.50;;;13.40;99.90;;;;;;5020908;28;20029;-61
2022/05/28 05:29:15;;;;;;;14.98;3.65;;;13.40;99.90;;;;;;5028041;28;20034;-62
2022/05/28 05:31:42;;;;;;;14.98;3.10;;;13.60;99.90;;;;;;5022647;28;20044;-61
2022/05/28 05:34:07;;;;;;;17.02;3.35;;;13.50;99.90;;;;;;5029885;28;20390;-61
2022/05/28 05:36:33;;;;;;;13.70;3.30;;;13.40;99.90;;;;;;5027341;28;20021;-62
2022/05/28 05:38:59;;;;;;;13.05;3.42;;;13.40;99.90;;;;;;5029168;28;20022;-62
2022/05/28 05:41:24;;;;;;;11.35;3.20;;;13.50;99.90;;;;;;5022495;28;20026;-61
2022/05/28 05:43:50;;;;;;;17.77;3.45;;;13.50;99.90;;;;;;5028556;28;20034;-62
2022/05/28 05:46:16;;;;;;;10.88;2.95;;;13.80;99.90;;;;;;5022116;28;20025;-61
2022/05/28 05:48:42;;;;;;;14.98;3.40;;;13.80;99.90;;;;;;5029142;28;20030;-62
2022/05/28 05:51:15;;;;;;;13.80;3.08;;;13.50;99.90;;;;;;5025981;28;20144;-59
2022/05/28 05:53:41;;;;;;;10.68;3.10;;;14.10;99.90;;;;;;5022224;28;20053;-62
2022/05/28 05:56:09;;;;;;;18.75;3.95;;;15.50;99.90;;;;;;5017162;28;20484;-62
2022/05/28 05:58:35;;;;;;;15.27;4.40;;;16.60;98.30;;;;;;5033087;28;20494;-62
2022/05/28 06:01:02;;;;;;;13.52;3.25;;;17.50;97.40;;;;;;5013012;28;20415;-62
2022/05/28 06:03:28;;;;;;;13.15;3.15;;;18.60;94.60;;;;;;5032701;28;20013;-62
2022/05/28 06:06:01;;;;;;;16.48;3.58;;;19.20;92.10;;;;;;5031682;28;20040;-62
2022/05/28 06:08:27;;;;;;;13.57;3.22;;;19.50;91.30;;;;;;5030442;28;20029;-61
2022/05/28 06:10:53;;;;;;;9.98;3.00;;;18.90;91.20;;;;;;5032018;28;20087;-59
2022/05/28 06:13:19;;;;;;;10.00;3.33;;;18.00;92.80;;;;;;5031638;28;20053;-59
2022/05/28 06:15:45;;;;;;;12.73;3.88;;;17.40;94.00;;;;;;5031141;28;20026;-59
2022/05/28 06:18:12;;;;;;;12.60;3.13;;;17.10;95.00;;;;;;5033049;28;20387;-62
2022/05/28 06:20:38;;;;;;;16.63;3.33;;;16.70;95.50;;;;;;5019003;28;20406;-62
2022/05/28 06:23:03;;;;;;;14.32;3.08;;;16.80;96.50;;;;;;5032019;28;20112;-61
2022/05/28 06:25:29;;;;;;;13.65;3.13;;;17.70;94.90;;;;;;5024796;28;20084;-62
2022/05/28 06:27:55;;;;;;;12.13;3.08;;;18.60;93.20;;;;;;5027746;28;20030;-59
2022/05/28 06:30:20;;;;;;;12.40;3.13;;;18.60;91.90;;;;;;5027877;28;20775;-59
2022/05/28 06:32:46;;;;;;;21.23;3.10;;;19.50;92.10;;;;;;5025201;28;20029;-58
2022/05/28 06:35:11;;;;;;;15.18;2.35;;;20.40;90.80;;;;;;5028525;28;20064;-60
2022/05/28 06:37:37;;;;;;;17.50;2.83;;;19.60;90.00;;;;;;5019521;28;20112;-60
2022/05/28 06:40:04;;;;;;;10.60;2.58;;;19.80;90.00;;;;;;5025621;28;20025;-60
2022/05/28 06:42:30;;;;;;;15.77;3.80;;;20.10;87.50;;;;;;5030831;28;20598;-58
2022/05/28 06:44:56;;;;;;;10.32;2.47;;;21.00;85.20;;;;;;5030262;28;20030;-60
2022/05/28 06:47:22;;;;;;;9.80;2.30;;;21.80;81.10;;;;;;5031612;28;20026;-60
2022/05/28 06:51:01;;;;;;;9.40;2.38;;;21.00;82.20;;;;;;5030619;28;20060;-60
2022/05/28 06:52:33;;;;;;;9.55;2.08;;;21.00;82.20;;;;;;5030579;28;20071;-58
2022/05/28 06:54:59;;;;;;;9.85;2.30;;;21.90;76.20;;;;;;5031063;28;20030;-61
2022/05/28 06:57:24;;;;;;;9.05;2.00;;;21.60;75.50;;;;;;5031742;28;20068;-60
2022/05/28 06:59:50;;;;;;;6.38;1.70;;;21.50;74.60;;;;;;5030799;28;20025;-61
2022/05/28 07:02:15;;;;;;;5.63;2.15;;;22.90;75.20;;;;;;5004542;28;20050;-60
2022/05/28 07:04:41;;;;;;;9.18;1.70;;;22.90;71.70;;;;;;5027308;28;20031;-60
2022/05/28 07:07:07;;;;;;;11.52;2.10;;;23.50;69.60;;;;;;5030325;28;20033;-60
2022/05/28 07:09:32;;;;;;;10.48;2.75;;;23.70;68.50;;;;;;5028318;28;20033;-60
2022/05/28 07:11:58;;;;;;;9.63;2.35;;;22.90;69.50;;;;;;5027492;28;20410;-59
2022/05/28 07:14:23;;;;;;;9.70;2.13;;;21.10;74.50;;;;;;5035764;28;20037;-61
2022/05/28 07:16:49;;;;;;;7.43;2.15;;;20.00;76.30;;;;;;5029170;28;20156;-61
2022/05/28 07:19:14;;;;;;;11.32;2.70;;;19.60;78.50;;;;;;5031276;28;20021;-61
2022/05/28 07:21:40;;;;;;;8.68;2.47;;;19.20;78.80;;;;;;5031672;28;20033;-59
2022/05/28 07:24:06;;;;;;;7.63;2.60;;;19.20;79.50;;;;;;5031863;28;20559;-60
2022/05/28 07:26:32;;;;;;;7.70;1.95;;;19.90;76.50;;;;;;5029799;28;20434;-61
2022/05/28 07:28:57;;;;;;;10.80;1.80;;;20.30;77.60;;;;;;5031881;28;20025;-60
2022/05/28 07:31:23;;;;;;;11.50;2.40;;;22.10;71.60;;;;;;5021626;28;20030;-59
2022/05/28 07:33:49;;;;;;;10.38;2.03;;;23.00;71.80;;;;;;5030857;28;20040;-61
2022/05/28 07:36:18;;;;;;;6.63;2.22;;;24.00;69.20;;;;;;5022472;28;20821;-61
2022/05/28 07:38:44;;;;;;;5.57;2.03;;;24.30;66.80;;;;;;5030750;28;20064;-61
2022/05/28 07:41:16;;;;;;;6.78;2.10;;;25.20;64.40;;;;;;5029059;28;20032;-61
2022/05/28 07:43:43;;;;;;;5.50;1.70;;;24.60;66.80;;;;;;5023084;28;20551;-61
2022/05/28 07:46:15;;;;;;;5.20;2.03;;;24.30;65.10;;;;;;5027497;28;20065;-61
2022/05/28 07:48:40;;;;;;;8.48;1.67;;;24.70;64.50;;;;;;5031575;28;20517;-61
2022/05/28 07:51:07;;;;;;;6.75;1.80;;;24.20;63.00;;;;;;5027685;28;20034;-60
2022/05/28 07:53:34;;;;;;;5.80;1.73;;;23.70;64.90;;;;;;5029354;28;20549;-61
2022/05/28 07:56:01;;;;;;;6.72;1.90;;;23.70;65.30;;;;;;5030211;28;20026;-61
2022/05/28 07:58:26;;;;;;;13.52;3.08;;;23.00;67.60;;;;;;5030246;28;20022;-61
2022/05/28 08:00:52;;;;;;;6.28;1.70;;;22.90;69.20;;;;;;5004308;28;20109;-61
2022/05/28 08:03:18;;;;;;;7.55;2.35;;;22.20;68.80;;;;;;5028913;28;20540;-61
2022/05/28 08:05:47;;;;;;;6.70;1.60;;;21.80;66.90;;;;;;5028599;28;20037;-61
2022/05/28 08:08:13;;;;;;;5.18;1.33;;;22.00;67.60;;;;;;5029447;28;20495;-61
2022/05/28 08:10:39;;;;;;;9.70;1.85;;;21.90;65.00;;;;;;5025010;28;20092;-60
2022/05/28 08:13:08;;;;;;;8.00;1.33;;;21.60;64.20;;;;;;5028546;28;20041;-61
2022/05/28 08:15:37;;;;;;;6.28;1.40;;;20.90;66.70;;;;;;5023976;28;20427;-60
2022/05/28 08:18:03;;;;;;;4.25;1.13;;;19.80;68.50;;;;;;5026654;28;20018;-61
2022/05/28 08:23:13;;;;;;;4.22;1.45;;;18.60;69.70;;;;;;5029798;28;20041;-61
2022/05/28 08:25:40;;;;;;;5.65;1.35;;;19.60;72.00;;;;;;5024520;28;20026;-61
2022/05/28 08:28:08;;;;;;;6.45;1.48;;;20.50;71.20;;;;;;5029341;28;20030;-61
2022/05/28 08:30:35;;;;;;;10.10;2.20;;;20.50;70.10;;;;;;5024700;28;20079;-60
2022/05/28 08:33:00;;;;;;;9.70;1.65;;;19.90;71.60;;;;;;5029523;28;20483;-60
2022/05/28 08:35:26;;;;;;;8.57;1.52;;;19.50;71.90;;;;;;5026024;28;20036;-61
2022/05/28 08:37:52;;;;;;;7.45;1.67;;;19.70;72.80;;;;;;5028475;28;20479;-61
2022/05/28 08:40:17;;;;;;;5.70;1.33;;;20.80;70.50;;;;;;5023758;28;20061;-61
2022/05/28 08:42:43;;;;;;;7.03;1.38;;;21.70;70.00;;;;;;5026592;28;20034;-60
2022/05/28 08:45:12;;;;;;;7.25;1.38;;;22.50;65.40;;;;;;5021642;28;20113;-61
2022/05/28 08:47:42;;;;;;;7.65;1.60;;;21.40;66.00;;;;;;5026204;28;20026;-60
2022/05/28 08:50:10;;;;;;;6.18;1.55;;;20.70;69.60;;;;;;5029652;28;20391;-59
2022/05/28 08:52:43;;;;;;;9.38;1.63;;;20.00;68.00;;;;;;5021878;28;20033;-60
2022/05/28 08:55:16;;;;;;;6.78;1.35;;;20.20;69.20;;;;;;5028927;28;20021;-61
2022/05/28 08:57:47;;;;;;;3.20;1.20;;;21.10;66.20;;;;;;5024782;28;20025;-61
2022/05/28 09:00:20;;;;;;;5.20;1.70;;;22.10;66.10;;;;;;5025938;28;20108;-59
2022/05/28 09:02:53;;;;;;;6.35;1.33;;;22.30;62.40;;;;;;5008722;28;20053;-60
2022/05/28 09:05:25;;;;;;;5.65;1.58;;;22.30;62.50;;;;;;5025555;28;20036;-60
2022/05/28 09:07:54;;;;;;;7.22;1.45;;;21.30;62.80;;;;;;5026460;28;20462;-60
2022/05/28 09:10:20;;;;;;;3.65;1.30;;;20.80;64.30;;;;;;5025959;28;20029;-61
2022/05/28 09:12:54;;;;;;;5.47;1.60;;;21.60;65.90;;;;;;5020803;28;20445;-61
2022/05/28 09:15:21;;;;;;;7.15;1.58;;;23.00;63.40;;;;;;5027838;28;20052;-62
2022/05/28 09:17:50;;;;;;;2.58;1.10;;;24.10;60.00;;;;;;5027847;28;20501;-61
2022/05/28 09:20:21;;;;;;;4.95;1.33;;;24.80;56.90;;;;;;5027247;28;20402;-61
2022/05/28 09:22:47;;;;;;;4.07;1.15;;;25.50;55.30;;;;;;5029585;28;20029;-62
2022/05/28 09:25:17;;;;;;;3.25;0.98;;;24.10;57.50;;;;;;5026313;28;20447;-60
2022/05/28 09:27:51;;;;;;;3.70;1.10;;;23.20;57.10;;;;;;5019194;28;20029;-61
2022/05/28 09:30:32;;;;;;;8.98;1.40;;;22.40;59.70;;;;;;5026703;28;20064;-61
2022/05/28 09:33:14;;;;;;;4.80;1.17;;;23.00;57.90;;;;;;5022943;28;20033;-61
2022/05/28 09:36:04;;;;;;;4.75;1.05;;;22.90;57.00;;;;;;5025308;28;20614;-61
2022/05/28 09:38:58;;;;;;;3.42;1.02;;;22.30;58.10;;;;;;5027141;28;20120;-57
2022/05/28 09:41:41;;;;;;;6.53;1.92;;;21.70;59.80;;;;;;5019963;28;20021;-59
2022/05/28 09:44:25;;;;;;;6.72;1.35;;;21.60;61.00;;;;;;5027213;28;20391;-60
2022/05/28 09:46:51;;;;;;;12.93;1.50;;;21.00;61.90;;;;;;5023752;28;20518;-61
2022/05/28 09:49:24;;;;;;;6.47;1.25;;;21.20;61.70;;;;;;5026115;28;20033;-61
2022/05/28 09:51:57;;;;;;;5.10;1.60;;;22.00;62.10;;;;;;5027017;28;20036;-61
2022/05/28 09:54:27;;;;;;;6.90;1.40;;;22.30;60.40;;;;;;5026439;28;20052;-61
2022/05/28 09:57:21;;;;;;;4.85;1.42;;;23.20;61.50;;;;;;5023186;28;20099;-62
2022/05/28 09:59:59;;;;;;;2.75;1.15;;;24.50;57.80;;;;;;5027327;28;20034;-62
2022/05/28 10:02:29;;;;;;;4.55;1.13;;;24.40;56.30;;;;;;5009400;28;20063;-61
2022/05/28 10:05:11;;;;;;;4.05;1.30;;;24.30;54.80;;;;;;5027990;28;20525;-61
2022/05/28 10:07:41;;;;;;;8.75;1.40;;;23.30;57.30;;;;;;5026707;28;20099;-61
2022/05/28 10:10:13;;;;;;;3.80;1.00;;;21.90;58.30;;;;;;5026738;28;20026;-61
2022/05/28 10:12:39;;;;;;;3.90;1.50;;;21.50;58.50;;;;;;5024966;28;20030;-61
2022/05/28 10:15:16;;;;;;;4.18;0.90;;;20.90;60.40;;;;;;5026180;28;20439;-59
2022/05/28 10:17:51;;;;;;;3.33;0.93;;;20.80;60.80;;;;;;5027859;28;20038;-61
2022/05/28 10:20:19;;;;;;;2.97;1.13;;;20.30;61.10;;;;;;5027868;28;20079;-61
2022/05/28 10:22:51;;;;;;;4.55;1.08;;;20.50;62.90;;;;;;5022439;28;20040;-60
2022/05/28 10:25:37;;;;;;;7.05;1.48;;;20.70;62.90;;;;;;5022420;28;20025;-60
2022/05/28 10:28:03;;;;;;;3.67;1.10;;;20.20;63.50;;;;;;5025550;28;20022;-60
2022/05/28 10:30:33;;;;;;;3.72;1.88;;;19.80;65.30;;;;;;5026792;28;20037;-60
2022/05/28 10:33:11;;;;;;;6.78;1.60;;;20.10;63.50;;;;;;5028073;28;20021;-59
2022/05/28 10:35:37;;;;;;;3.20;1.25;;;20.50;61.50;;;;;;5020769;28;20041;-61
2022/05/28 10:38:07;;;;;;;6.80;1.05;;;21.00;63.00;;;;;;5022249;28;20151;-61
2022/05/28 10:40:33;;;;;;;6.88;1.20;;;20.50;61.70;;;;;;5022455;28;20033;-59
2022/05/28 10:43:02;;;;;;;4.63;1.27;;;20.50;62.40;;;;;;5026695;28;20083;-61
2022/05/28 10:45:36;;;;;;;5.35;1.63;;;20.00;62.00;;;;;;5028781;28;20036;-60
2022/05/28 10:48:10;;;;;;;9.32;2.33;;;19.40;63.30;;;;;;5031633;28;20025;-61
2022/05/28 10:50:52;;;;;;;5.47;1.48;;;19.50;63.10;;;;;;5024366;28;20037;-59
2022/05/28 10:53:41;;;;;;;10.38;0.95;;;20.00;61.10;;;;;;5031937;28;20038;-61
2022/05/28 10:56:24;;;;;;;5.53;1.35;;;19.90;60.40;;;;;;5030756;28;20040;-61
2022/05/28 10:59:24;;;;;;;5.38;1.55;;;18.80;63.20;;;;;;5031919;28;20033;-61
2022/05/28 11:02:08;;;;;;;6.32;1.17;;;18.40;65.80;;;;;;5012621;28;20037;-60
2022/05/28 11:04:48;;;;;;;;;;;18.30;64.00;;;;;;5030416;28;20033;-61
2022/05/28 11:07:31;;;;;;;2.30;0.93;;;18.20;63.60;;;;;;5022236;28;19920;-59
2022/05/28 11:10:24;;;;;;;5.38;1.27;;;18.50;65.70;;;;;;5028968;28;20029;-60
2022/05/28 11:13:02;;;;;;;3.00;1.10;;;18.70;61.40;;;;;;5023621;28;20059;-61
2022/05/28 11:15:58;;;;;;;4.10;1.20;;;18.30;62.70;;;;;;5027833;28;20030;-61
2022/05/28 11:18:51;;;;;;;8.30;1.52;;;18.70;64.20;;;;;;5027340;28;20030;-60
2022/05/28 11:21:41;;;;;;;2.83;1.33;;;19.70;61.90;;;;;;5017566;28;20026;-61
2022/05/28 11:24:54;;;;;;;3.60;0.95;;;20.00;61.90;;;;;;5028158;28;20280;-60
2022/05/28 11:27:48;;;;;;;2.92;1.00;;;20.00;61.50;;;;;;5020571;28;20043;-60
2022/05/28 11:30:24;;;;;;;6.75;1.55;;;20.30;57.30;;;;;;5026611;28;20061;-61
2022/05/28 11:33:02;;;;;;;5.80;1.50;;;19.90;57.00;;;;;;5028662;28;20034;-61
2022/05/28 11:35:38;;;;;;;5.00;1.42;;;20.10;60.50;;;;;;5025345;28;20478;-61
2022/05/28 11:38:22;;;;;;;7.53;1.55;;;20.50;59.00;;;;;;5024786;28;20018;-60
2022/05/28 11:40:56;;;;;;;5.32;1.40;;;20.60;58.10;;;;;;5028420;28;20083;-60
2022/05/28 11:43:28;;;;;;;5.35;1.05;;;20.30;56.90;;;;;;5031159;28;20570;-60
2022/05/28 11:45:57;;;;;;;5.50;1.30;;;19.90;60.00;;;;;;5034146;28;20032;-59
2022/05/28 11:51:33;;;;;;;4.03;1.08;;;19.60;62.00;;;;;;5029498;28;20025;-60
2022/05/28 11:54:15;;;;;;;2.70;1.00;;;19.90;59.80;;;;;;5029897;28;20041;-62
2022/05/28 11:56:42;;;;;;;5.43;1.55;;;19.90;62.30;;;;;;5030646;28;20029;-62
2022/05/28 11:59:13;;;;;;;5.05;1.23;;;19.70;61.10;;;;;;5030225;28;20833;-61
2022/05/28 12:01:53;;;;;;;10.50;1.73;;;20.00;60.70;;;;;;5004532;28;20091;-60
2022/05/28 12:04:19;;;;;;;3.78;1.48;;;19.90;60.50;;;;;;5029375;28;20029;-60
2022/05/28 12:06:56;;;;;;;3.42;1.00;;;19.90;60.80;;;;;;5020664;28;20403;-61
2022/05/28 12:09:26;;;;;;;6.57;1.45;;;19.80;62.00;;;;;;5028508;28;20033;-60
2022/05/28 12:12:12;;;;;;;5.63;1.02;;;19.30;61.00;;;;;;5022751;28;20025;-60
2022/05/28 12:14:41;;;;;;;6.78;1.23;;;19.20;63.10;;;;;;5026841;28;20029;-59
2022/05/28 12:17:11;;;;;;;4.07;1.42;;;19.30;60.60;;;;;;5007439;28;20493;-60
2022/05/28 12:19:58;;;;;;;4.28;1.40;;;19.60;62.20;;;;;;5029375;28;20025;-60
2022/05/28 12:22:50;;;;;;;4.80;1.67;;;20.10;59.30;;;;;;5029276;28;20053;-61
2022/05/28 12:25:16;;;;;;;5.93;1.42;;;19.80;59.00;;;;;;5026250;28;20035;-60
2022/05/28 12:27:41;;;;;;;10.82;1.80;;;19.50;60.20;;;;;;5028027;28;20481;-60
2022/05/28 12:30:22;;;;;;;9.75;3.22;;;19.70;61.70;;;;;;5028481;28;20025;-60
2022/05/28 12:32:49;;;;;;;4.90;1.52;;;19.40;61.10;;;;;;5023030;28;20430;-61
2022/05/28 12:35:15;;;;;;;5.10;1.48;;;19.50;62.80;;;;;;5020511;28;20026;-60
2022/05/28 12:37:49;;;;;;;3.22;1.63;;;19.60;62.20;;;;;;5025453;28;20115;-60
2022/05/28 12:40:26;;;;;;;3.70;1.10;;;19.50;61.10;;;;;;5026542;28;20638;-61
2022/05/28 12:42:53;;;;;;;3.63;1.75;;;19.60;62.90;;;;;;5019293;28;20037;-61
2022/05/28 12:45:39;;;;;;;5.68;1.65;;;19.70;60.60;;;;;;5016311;28;20108;-61
2022/05/28 12:48:10;;;;;;;7.60;1.23;;;20.00;60.60;;;;;;5023195;28;20028;-60
2022/05/28 12:50:51;;;;;;;10.13;1.17;;;20.20;61.60;;;;;;5007876;28;20124;-60
2022/05/28 12:53:20;;;;;;;6.75;1.40;;;20.20;61.30;;;;;;5008542;28;20029;-59
2022/05/28 12:55:58;;;;;;;5.60;1.35;;;19.90;58.50;;;;;;5016968;28;20033;-59
2022/05/28 12:58:23;;;;;;;4.90;1.60;;;19.80;62.30;;;;;;5012569;28;20384;-61
2022/05/28 13:00:54;;;;;;;6.10;1.73;;;19.60;61.60;;;;;;5016286;28;20071;-60
2022/05/28 13:03:22;;;;;;;6.53;1.33;;;19.50;58.70;;;;;;5001878;28;20069;-59
2022/05/28 13:05:52;;;;;;;4.07;1.60;;;19.70;61.90;;;;;;5019043;28;20040;-61
2022/05/28 13:08:24;;;;;;;6.32;1.67;;;19.50;60.80;;;;;;5016660;28;20022;-59